Time;durP1;ratioP1;P1;durP2;ratioP2;P2;SDS_P1;SDS_P2;PMS_P1;PMS_P2;Temp;Humidity;BMP_temperature;BMP_pressure;BME280_temperature;BME280_humidity;BME280_pressure;Samples;Min_cycle;Max_cycle;Signal;HPM_P1;HPM_P2
2023/07/17 00:00:12;;;;;;;6.05;2.35;;;18.00;70.70;;;;;;5021091;28;20064;-78
2023/07/17 00:02:39;;;;;;;5.60;2.17;;;18.00;70.70;;;;;;5022887;28;20054;-78
2023/07/17 00:05:09;;;;;;;5.47;2.10;;;18.00;70.80;;;;;;5030830;28;20050;-77
2023/07/17 00:07:36;;;;;;;6.53;2.03;;;17.90;70.80;;;;;;5027802;28;20129;-78
2023/07/17 00:10:04;;;;;;;6.20;2.22;;;17.90;70.90;;;;;;5020717;28;20049;-78
2023/07/17 00:12:31;;;;;;;5.93;2.45;;;17.80;70.90;;;;;;5028546;28;20576;-78
2023/07/17 00:14:58;;;;;;;5.57;2.10;;;17.80;71.00;;;;;;5029392;28;20129;-78
2023/07/17 00:17:25;;;;;;;5.65;2.00;;;17.80;71.10;;;;;;5028334;28;20137;-77
2023/07/17 00:19:55;;;;;;;6.10;2.07;;;17.80;71.30;;;;;;5028922;28;20060;-77
2023/07/17 00:22:24;;;;;;;7.07;2.30;;;17.80;71.40;;;;;;5030181;28;20053;-77
2023/07/17 00:24:51;;;;;;;6.97;2.22;;;17.80;71.50;;;;;;5030924;28;20616;-77
2023/07/17 00:27:19;;;;;;;5.75;1.90;;;17.80;71.50;;;;;;5026466;28;20140;-77
2023/07/17 00:29:46;;;;;;;7.53;1.42;;;17.80;71.40;;;;;;5028249;28;20560;-78
2023/07/17 00:32:13;;;;;;;6.50;1.50;;;17.80;71.30;;;;;;5030070;28;20504;-78
2023/07/17 00:34:41;;;;;;;7.68;1.65;;;17.70;70.90;;;;;;5010483;28;20042;-78
2023/07/17 00:37:09;;;;;;;6.85;1.85;;;17.70;71.20;;;;;;5028522;28;20038;-77
2023/07/17 00:39:37;;;;;;;7.32;1.50;;;17.60;71.80;;;;;;5028455;28;20077;-78
2023/07/17 00:42:04;;;;;;;5.90;1.80;;;17.50;72.40;;;;;;5008699;28;20061;-77
2023/07/17 00:44:35;;;;;;;5.10;1.60;;;17.40;73.00;;;;;;5036709;28;20599;-78
2023/07/17 00:47:03;;;;;;;7.70;1.90;;;17.30;73.40;;;;;;5008177;28;20035;-77
2023/07/17 00:49:30;;;;;;;8.40;1.70;;;17.20;73.90;;;;;;5028349;28;20060;-77
2023/07/17 00:51:58;;;;;;;6.25;1.60;;;17.20;74.20;;;;;;5026764;28;20144;-77
2023/07/17 00:54:27;;;;;;;6.40;1.60;;;17.20;74.50;;;;;;5027860;28;20053;-77
2023/07/17 00:56:56;;;;;;;6.80;1.77;;;17.20;74.40;;;;;;5011383;28;20148;-77
2023/07/17 00:59:24;;;;;;;6.25;1.63;;;17.00;74.30;;;;;;5002152;28;20053;-77
2023/07/17 01:01:51;;;;;;;7.88;1.50;;;17.00;74.20;;;;;;4994442;28;20129;-77
2023/07/17 01:04:18;;;;;;;6.25;1.40;;;17.00;74.20;;;;;;5021920;28;20112;-77
2023/07/17 01:06:45;;;;;;;5.03;1.33;;;17.00;74.00;;;;;;5044359;28;20547;-77
2023/07/17 01:09:13;;;;;;;8.00;1.73;;;17.00;74.10;;;;;;5027994;28;20161;-77
2023/07/17 01:11:40;;;;;;;7.00;1.80;;;17.00;74.30;;;;;;5023775;28;20057;-77
2023/07/17 01:14:15;;;;;;;7.40;1.60;;;16.90;74.60;;;;;;5008230;28;20046;-77
2023/07/17 01:16:42;;;;;;;5.80;1.58;;;16.90;74.70;;;;;;5007202;28;20057;-77
2023/07/17 01:19:09;;;;;;;6.45;1.48;;;16.90;75.00;;;;;;5008790;28;20129;-77
2023/07/17 01:21:40;;;;;;;7.50;2.00;;;16.90;75.00;;;;;;5044224;28;20129;-77
2023/07/17 01:24:09;;;;;;;8.82;1.83;;;16.90;75.00;;;;;;5028026;28;20054;-77
2023/07/17 01:26:36;;;;;;;8.38;1.92;;;16.90;74.90;;;;;;5007618;28;20053;-77
2023/07/17 01:29:03;;;;;;;6.32;1.80;;;16.90;74.60;;;;;;5026147;28;20050;-77
2023/07/17 01:31:30;;;;;;;8.45;1.77;;;16.80;74.30;;;;;;5009874;28;20046;-77
2023/07/17 01:33:57;;;;;;;7.87;1.43;;;16.80;73.70;;;;;;5027859;28;20058;-77
2023/07/17 01:36:26;;;;;;;6.90;1.42;;;16.80;73.40;;;;;;5020551;28;20496;-77
2023/07/17 01:38:54;;;;;;;6.55;1.63;;;16.80;73.20;;;;;;5028215;28;20050;-77
2023/07/17 01:41:23;;;;;;;4.95;1.30;;;16.70;73.20;;;;;;5025094;28;20057;-77
2023/07/17 01:43:50;;;;;;;5.82;1.52;;;16.70;72.90;;;;;;5043856;28;20061;-77
2023/07/17 01:46:17;;;;;;;7.30;1.57;;;16.70;72.80;;;;;;5010953;28;20145;-78
2023/07/17 01:48:44;;;;;;;6.28;1.63;;;16.70;72.50;;;;;;5010755;28;20108;-77
2023/07/17 01:51:12;;;;;;;6.22;1.45;;;16.70;72.50;;;;;;5010616;28;20054;-77
2023/07/17 01:53:39;;;;;;;4.88;1.15;;;16.70;72.40;;;;;;5024478;28;20048;-77
2023/07/17 01:56:06;;;;;;;5.22;1.40;;;16.60;72.40;;;;;;5010007;28;20046;-77
2023/07/17 01:58:34;;;;;;;6.93;1.30;;;16.60;72.30;;;;;;5027137;28;20050;-77
2023/07/17 02:01:01;;;;;;;4.45;1.27;;;16.60;72.30;;;;;;5027133;28;20527;-77
2023/07/17 02:03:28;;;;;;;6.50;1.30;;;16.60;72.30;;;;;;5025128;28;20540;-77
2023/07/17 02:05:56;;;;;;;4.85;1.27;;;16.60;72.10;;;;;;5027215;28;20046;-77
2023/07/17 02:08:22;;;;;;;5.97;1.83;;;16.60;72.10;;;;;;5026602;28;20053;-77
2023/07/17 02:10:51;;;;;;;6.97;1.50;;;16.60;72.00;;;;;;5010341;28;20512;-77
2023/07/17 02:13:18;;;;;;;6.85;1.63;;;16.60;71.90;;;;;;5008790;28;20046;-78
2023/07/17 02:15:47;;;;;;;5.88;1.45;;;16.50;71.80;;;;;;5010596;28;20522;-77
2023/07/17 02:18:14;;;;;;;7.60;1.60;;;16.50;71.80;;;;;;5010283;28;20133;-77
2023/07/17 02:20:40;;;;;;;5.65;1.55;;;16.50;71.80;;;;;;5026903;28;20050;-78
2023/07/17 02:23:07;;;;;;;4.90;1.47;;;16.50;71.80;;;;;;5025758;28;20141;-77
2023/07/17 02:25:34;;;;;;;7.53;1.60;;;16.40;71.80;;;;;;5027118;28;20056;-77
2023/07/17 02:28:01;;;;;;;5.13;1.30;;;16.40;72.00;;;;;;5010344;28;20053;-77
2023/07/17 02:30:28;;;;;;;8.27;1.55;;;16.40;72.10;;;;;;5025979;28;20085;-77
2023/07/17 02:32:56;;;;;;;6.10;1.50;;;16.40;72.20;;;;;;5009141;28;20202;-78
2023/07/17 02:35:25;;;;;;;5.80;1.40;;;16.40;72.30;;;;;;5024969;28;20078;-77
2023/07/17 02:37:52;;;;;;;6.32;1.73;;;16.40;72.50;;;;;;5042688;28;20046;-77
2023/07/17 02:40:23;;;;;;;6.05;1.60;;;16.40;72.60;;;;;;5026504;28;20419;-78
2023/07/17 02:42:50;;;;;;;7.28;1.73;;;16.40;72.70;;;;;;5025956;28;20136;-77
2023/07/17 02:45:17;;;;;;;6.00;1.67;;;16.30;73.00;;;;;;5009455;28;20527;-78
2023/07/17 02:47:44;;;;;;;5.70;1.67;;;16.30;73.00;;;;;;5025090;28;20049;-77
2023/07/17 02:50:14;;;;;;;6.13;1.40;;;16.30;73.20;;;;;;5026745;28;20053;-77
2023/07/17 02:52:41;;;;;;;7.53;1.67;;;16.30;73.20;;;;;;5019048;28;20058;-77
2023/07/17 02:55:08;;;;;;;7.75;1.88;;;16.30;73.30;;;;;;5024523;28;20045;-77
2023/07/17 02:57:36;;;;;;;6.53;1.50;;;16.30;73.50;;;;;;5010054;28;20767;-77
2023/07/17 03:00:08;;;;;;;7.43;1.77;;;16.30;73.50;;;;;;5026598;28;20867;-77
2023/07/17 03:02:35;;;;;;;6.32;1.60;;;16.20;73.50;;;;;;5017616;28;20469;-77
2023/07/17 03:05:08;;;;;;;6.55;1.70;;;16.20;73.80;;;;;;5023211;28;20052;-77
2023/07/17 03:07:37;;;;;;;8.52;1.90;;;16.20;73.90;;;;;;5024390;28;20052;-77
2023/07/17 03:10:05;;;;;;;8.43;1.80;;;16.20;74.00;;;;;;5025963;28;20045;-77
2023/07/17 03:12:32;;;;;;;10.20;2.10;;;16.20;74.00;;;;;;5020619;28;20057;-77
2023/07/17 03:14:59;;;;;;;6.05;1.65;;;16.20;74.30;;;;;;5022542;28;20470;-77
2023/07/17 03:17:26;;;;;;;8.20;1.70;;;16.20;74.30;;;;;;5025810;28;20050;-77
2023/07/17 03:19:53;;;;;;;9.50;2.13;;;16.10;74.40;;;;;;5042544;28;20050;-77
2023/07/17 03:22:20;;;;;;;6.30;1.83;;;16.10;74.50;;;;;;5024254;28;20054;-77
2023/07/17 03:24:48;;;;;;;7.70;1.97;;;16.10;74.60;;;;;;5025078;28;20602;-77
2023/07/17 03:27:15;;;;;;;11.52;2.08;;;16.10;74.70;;;;;;5025825;28;20052;-77
2023/07/17 03:29:42;;;;;;;6.63;1.80;;;16.10;74.70;;;;;;5009650;28;20065;-77
2023/07/17 03:32:10;;;;;;;8.00;1.92;;;16.10;74.70;;;;;;5008967;28;20053;-77
2023/07/17 03:34:37;;;;;;;9.70;2.20;;;16.10;74.90;;;;;;5025976;28;20042;-77
2023/07/17 03:37:04;;;;;;;9.07;2.07;;;16.10;74.80;;;;;;5019828;28;20539;-78
2023/07/17 03:39:32;;;;;;;8.35;1.70;;;16.10;74.90;;;;;;5023532;28;20637;-77
2023/07/17 03:42:00;;;;;;;7.20;2.10;;;16.10;74.90;;;;;;5025436;28;20088;-78
2023/07/17 03:44:27;;;;;;;7.95;1.58;;;16.00;75.10;;;;;;5008984;28;20050;-77
2023/07/17 03:46:54;;;;;;;7.00;1.70;;;16.00;75.00;;;;;;5004559;28;20144;-77
2023/07/17 03:49:21;;;;;;;6.67;1.70;;;16.00;75.00;;;;;;5014458;28;20065;-77
2023/07/17 03:51:49;;;;;;;6.95;1.90;;;16.00;75.00;;;;;;5007899;28;20068;-77
2023/07/17 03:54:16;;;;;;;7.40;1.75;;;16.00;75.00;;;;;;5008030;28;20085;-77
2023/07/17 03:56:43;;;;;;;9.30;2.35;;;16.00;74.90;;;;;;5005415;28;20516;-77
2023/07/17 03:59:13;;;;;;;9.15;1.60;;;16.00;75.00;;;;;;5008074;28;20042;-78
2023/07/17 04:01:40;;;;;;;6.70;1.60;;;16.00;75.00;;;;;;4993704;28;20046;-77
2023/07/17 04:04:07;;;;;;;6.40;1.90;;;16.00;75.00;;;;;;5011788;28;20463;-77
2023/07/17 04:06:35;;;;;;;8.05;1.75;;;16.00;75.00;;;;;;5012985;28;20085;-77
2023/07/17 04:09:02;;;;;;;9.75;2.05;;;16.00;74.90;;;;;;5011895;28;20080;-77
2023/07/17 04:11:29;;;;;;;7.85;1.70;;;16.00;74.80;;;;;;5029125;28;20526;-77
2023/07/17 04:13:56;;;;;;;6.43;1.60;;;16.00;74.90;;;;;;5011011;28;20138;-77
2023/07/17 04:16:26;;;;;;;8.63;2.25;;;16.00;75.00;;;;;;5029259;28;20531;-77
2023/07/17 04:18:55;;;;;;;9.88;2.30;;;16.00;75.00;;;;;;4996895;28;20163;-77
2023/07/17 04:21:22;;;;;;;7.78;1.90;;;16.00;75.00;;;;;;5027952;28;20452;-77
2023/07/17 04:23:50;;;;;;;10.52;2.20;;;16.00;75.00;;;;;;5012438;28;20137;-77
2023/07/17 04:26:21;;;;;;;7.37;1.87;;;15.90;75.10;;;;;;5028968;28;20374;-77
2023/07/17 04:28:48;;;;;;;8.45;1.90;;;15.90;75.20;;;;;;5030805;28;20050;-77
2023/07/17 04:31:16;;;;;;;8.73;2.05;;;15.90;75.50;;;;;;5003969;28;20053;-77
2023/07/17 04:33:44;;;;;;;7.50;2.17;;;15.90;75.40;;;;;;5026980;28;20049;-77
2023/07/17 04:36:11;;;;;;;6.80;1.95;;;15.90;75.50;;;;;;5028829;28;20129;-77
2023/07/17 04:38:38;;;;;;;7.97;2.00;;;15.90;75.70;;;;;;5026871;28;20054;-77
2023/07/17 04:41:05;;;;;;;8.13;1.95;;;15.90;75.60;;;;;;5025707;28;20046;-77
2023/07/17 04:43:32;;;;;;;8.55;1.90;;;15.90;75.70;;;;;;5043510;28;20104;-77
2023/07/17 04:46:00;;;;;;;7.60;2.10;;;15.90;75.80;;;;;;5011919;28;20585;-77
2023/07/17 04:48:27;;;;;;;8.05;1.80;;;15.90;75.90;;;;;;5011828;28;20176;-77
2023/07/17 04:50:56;;;;;;;8.00;1.90;;;15.80;75.90;;;;;;5010312;28;20049;-77
2023/07/17 04:53:25;;;;;;;8.40;2.60;;;15.90;76.00;;;;;;5010537;28;20038;-77
2023/07/17 04:55:52;;;;;;;10.63;2.15;;;15.90;76.00;;;;;;5012165;28;20145;-77
2023/07/17 04:58:20;;;;;;;9.65;2.20;;;15.90;76.10;;;;;;5028555;28;20045;-77
2023/07/17 05:00:49;;;;;;;8.82;2.30;;;16.00;76.10;;;;;;5011972;28;20060;-77
2023/07/17 05:03:17;;;;;;;9.33;2.07;;;16.00;76.20;;;;;;5010590;28;20042;-77
2023/07/17 05:05:48;;;;;;;10.43;2.50;;;16.00;76.10;;;;;;5028867;28;20068;-77
2023/07/17 05:08:18;;;;;;;8.93;2.10;;;16.00;76.10;;;;;;5011911;28;20085;-77
2023/07/17 05:10:53;;;;;;;8.32;2.05;;;16.00;76.10;;;;;;5011856;28;20052;-77
2023/07/17 05:13:21;;;;;;;8.13;2.10;;;16.00;76.10;;;;;;5042932;28;20082;-77
2023/07/17 05:15:48;;;;;;;7.03;2.03;;;16.00;76.00;;;;;;5011681;28;20148;-77
2023/07/17 05:18:18;;;;;;;7.47;2.10;;;16.00;76.10;;;;;;5011862;28;20096;-77
2023/07/17 05:20:45;;;;;;;6.13;2.10;;;16.00;76.10;;;;;;5028308;28;20057;-77
2023/07/17 05:23:14;;;;;;;6.78;2.00;;;16.00;76.10;;;;;;5011333;28;20133;-77
2023/07/17 05:25:43;;;;;;;7.32;2.13;;;16.10;76.20;;;;;;5003481;28;20049;-77
2023/07/17 05:28:10;;;;;;;8.10;2.00;;;16.10;76.10;;;;;;5018219;28;20046;-77
2023/07/17 05:30:37;;;;;;;8.50;2.67;;;16.10;76.00;;;;;;5009048;28;20508;-77
2023/07/17 05:33:05;;;;;;;8.85;2.45;;;16.10;76.10;;;;;;5030430;28;20422;-77
2023/07/17 05:35:32;;;;;;;9.60;2.63;;;16.20;76.20;;;;;;5022444;28;20085;-77
2023/07/17 05:38:01;;;;;;;7.75;2.60;;;16.20;76.30;;;;;;5017073;28;20050;-77
2023/07/17 05:40:28;;;;;;;8.90;2.20;;;16.20;76.30;;;;;;5008298;28;20054;-77
2023/07/17 05:42:56;;;;;;;8.63;2.63;;;16.30;76.50;;;;;;5013794;28;20045;-77
2023/07/17 05:45:24;;;;;;;8.02;2.15;;;16.30;76.40;;;;;;5014319;28;20069;-77
2023/07/17 05:47:51;;;;;;;9.80;2.40;;;16.40;76.10;;;;;;5038664;28;20891;-77
2023/07/17 05:50:19;;;;;;;8.50;2.63;;;16.40;75.80;;;;;;5039298;28;20261;-77
2023/07/17 05:52:47;;;;;;;9.80;2.67;;;16.40;75.80;;;;;;5018493;28;20057;-77
2023/07/17 05:55:14;;;;;;;11.05;2.83;;;16.40;75.70;;;;;;5022156;28;20069;-77
2023/07/17 05:57:42;;;;;;;10.07;2.72;;;16.40;76.00;;;;;;5017061;28;20198;-77
2023/07/17 06:00:14;;;;;;;8.95;2.47;;;16.40;76.10;;;;;;5017141;28;20057;-77
2023/07/17 06:02:42;;;;;;;9.10;2.63;;;16.40;76.10;;;;;;5038509;28;20132;-77
2023/07/17 06:05:09;;;;;;;10.80;2.70;;;16.50;76.00;;;;;;5034803;28;20050;-77
2023/07/17 06:07:37;;;;;;;12.07;2.92;;;16.50;75.80;;;;;;5034251;28;20057;-78
2023/07/17 06:10:05;;;;;;;8.57;2.85;;;16.60;75.70;;;;;;5035402;28;20120;-77
2023/07/17 06:12:33;;;;;;;9.82;3.28;;;16.60;75.50;;;;;;5031586;28;20054;-78
2023/07/17 06:15:00;;;;;;;8.85;2.58;;;16.60;75.70;;;;;;5024767;28;20053;-77
2023/07/17 06:17:29;;;;;;;12.90;3.00;;;16.70;75.60;;;;;;5030669;28;20053;-77
2023/07/17 06:19:56;;;;;;;8.38;2.70;;;16.70;75.40;;;;;;5031387;28;20058;-77
2023/07/17 06:22:52;;;;;;;9.45;3.08;;;16.70;75.30;;;;;;5031593;28;20427;-77
2023/07/17 06:25:19;;;;;;;11.93;2.53;;;16.70;75.30;;;;;;5026933;28;20050;-77
2023/07/17 06:27:47;;;;;;;9.73;2.42;;;16.80;75.20;;;;;;5022886;28;20054;-77
2023/07/17 06:30:14;;;;;;;10.80;3.13;;;16.80;75.00;;;;;;5011126;28;20050;-77
2023/07/17 06:32:42;;;;;;;10.05;3.25;;;16.90;75.00;;;;;;5016519;28;20045;-75
2023/07/17 06:35:10;;;;;;;12.93;2.72;;;16.90;74.50;;;;;;5033091;28;20054;-76
2023/07/17 06:37:37;;;;;;;12.23;4.00;;;16.90;74.60;;;;;;5035229;28;20057;-76
2023/07/17 06:40:06;;;;;;;8.40;2.60;;;16.90;74.50;;;;;;5024615;28;20066;-76
2023/07/17 06:42:33;;;;;;;15.10;3.40;;;16.90;74.10;;;;;;5030783;28;20125;-76
2023/07/17 06:45:00;;;;;;;11.88;3.25;;;16.90;74.10;;;;;;5031558;28;20136;-76
2023/07/17 06:47:27;;;;;;;9.93;3.35;;;16.90;74.10;;;;;;5028458;28;20056;-76
2023/07/17 06:49:55;;;;;;;10.55;2.53;;;16.90;74.50;;;;;;5036300;28;20945;-76
2023/07/17 06:52:22;;;;;;;11.27;3.58;;;16.90;74.80;;;;;;5032512;28;20706;-75
2023/07/17 06:54:49;;;;;;;11.20;3.57;;;16.90;75.00;;;;;;5032753;28;20044;-76
2023/07/17 06:57:16;;;;;;;10.80;3.35;;;16.90;75.20;;;;;;5033826;28;20837;-78
2023/07/17 06:59:43;;;;;;;9.65;3.75;;;17.00;75.50;;;;;;5011185;28;20512;-76
2023/07/17 07:02:10;;;;;;;13.73;3.90;;;17.00;74.60;;;;;;5041966;28;20803;-77
2023/07/17 07:04:38;;;;;;;12.30;3.70;;;17.10;74.50;;;;;;5031163;28;20057;-78
2023/07/17 07:07:06;;;;;;;11.77;3.90;;;17.10;74.50;;;;;;5042638;28;20046;-76
2023/07/17 07:09:33;;;;;;;15.75;4.05;;;17.20;74.20;;;;;;5023626;28;20054;-78
2023/07/17 07:12:00;;;;;;;12.75;3.90;;;17.20;73.90;;;;;;5027117;28;20116;-78
2023/07/17 07:14:27;;;;;;;6.63;2.25;;;17.20;73.90;;;;;;5034384;28;20603;-78
2023/07/17 07:16:54;;;;;;;14.02;4.22;;;17.20;74.20;;;;;;5012471;28;20057;-78
2023/07/17 07:19:21;;;;;;;14.33;3.80;;;17.20;74.40;;;;;;5013544;28;20054;-78
2023/07/17 07:21:48;;;;;;;11.70;3.70;;;17.20;73.90;;;;;;5010016;28;20448;-77
2023/07/17 07:24:16;;;;;;;13.05;4.30;;;17.20;74.10;;;;;;5018117;28;20050;-78
2023/07/17 07:26:43;;;;;;;11.95;3.75;;;17.30;73.80;;;;;;5017807;28;20054;-76
2023/07/17 07:29:10;;;;;;;11.10;3.83;;;17.30;73.60;;;;;;5028116;28;20188;-77
2023/07/17 07:31:37;;;;;;;9.73;3.67;;;17.30;73.50;;;;;;5024431;28;20052;-77
2023/07/17 07:34:04;;;;;;;10.07;3.63;;;17.40;73.00;;;;;;5037895;28;20496;-77
2023/07/17 07:36:30;;;;;;;13.32;3.92;;;17.40;72.90;;;;;;5024797;28;20085;-77
2023/07/17 07:38:57;;;;;;;13.23;4.10;;;17.40;73.00;;;;;;5022448;28;20840;-77
2023/07/17 07:41:26;;;;;;;10.18;3.67;;;17.50;73.30;;;;;;5028512;28;20136;-77
2023/07/17 07:43:53;;;;;;;11.70;3.57;;;17.50;72.40;;;;;;5029126;28;20081;-77
2023/07/17 07:46:19;;;;;;;10.35;3.50;;;17.50;73.00;;;;;;5028896;28;20103;-78
2023/07/17 07:48:46;;;;;;;10.43;3.42;;;17.50;73.20;;;;;;5023729;28;20878;-77
2023/07/17 07:51:13;;;;;;;10.07;3.08;;;17.60;72.90;;;;;;5027078;28;20046;-77
2023/07/17 07:53:40;;;;;;;10.60;2.70;;;17.70;71.20;;;;;;5019459;28;20570;-77
2023/07/17 07:56:07;;;;;;;9.43;2.80;;;17.70;72.20;;;;;;5038318;28;20054;-76
2023/07/17 07:58:35;;;;;;;9.25;3.40;;;17.80;71.30;;;;;;5038825;28;20061;-76
2023/07/17 08:01:02;;;;;;;11.20;3.28;;;17.80;71.00;;;;;;5012632;28;20433;-77
2023/07/17 08:03:29;;;;;;;10.63;3.03;;;17.80;70.80;;;;;;5022539;28;20042;-75
2023/07/17 08:05:56;;;;;;;10.60;3.22;;;17.80;70.80;;;;;;5019997;28;20054;-75
2023/07/17 08:08:23;;;;;;;7.20;3.13;;;17.80;70.10;;;;;;5018866;28;20047;-75
2023/07/17 08:10:53;;;;;;;10.38;3.45;;;17.80;70.60;;;;;;5022578;28;20518;-76
2023/07/17 08:13:23;;;;;;;9.50;3.30;;;17.80;70.80;;;;;;5026484;28;20173;-75
2023/07/17 08:15:51;;;;;;;9.73;3.30;;;17.80;70.70;;;;;;5023748;28;20063;-76
2023/07/17 08:18:18;;;;;;;10.05;3.15;;;17.90;69.70;;;;;;5028525;28;20129;-76
2023/07/17 08:20:45;;;;;;;10.23;2.10;;;17.90;70.20;;;;;;5029264;28;20046;-76
2023/07/17 08:23:12;;;;;;;9.48;2.95;;;17.90;70.20;;;;;;5027646;28;20104;-76
2023/07/17 08:25:39;;;;;;;8.80;2.67;;;17.90;70.20;;;;;;5028820;28;20594;-76
2023/07/17 08:28:06;;;;;;;10.52;2.97;;;18.00;69.50;;;;;;5032904;28;20049;-76
2023/07/17 08:30:33;;;;;;;11.30;3.30;;;18.00;69.50;;;;;;5044395;28;20057;-76
2023/07/17 08:33:01;;;;;;;6.63;2.50;;;18.00;69.30;;;;;;5037750;28;20571;-76
2023/07/17 08:35:28;;;;;;;10.98;3.15;;;18.00;68.50;;;;;;5039523;28;20096;-75
2023/07/17 08:37:55;;;;;;;8.18;2.45;;;18.00;68.40;;;;;;5030885;28;20061;-75
2023/07/17 08:40:23;;;;;;;9.63;2.28;;;18.00;68.20;;;;;;5019877;28;20043;-77
2023/07/17 08:42:53;;;;;;;6.05;1.85;;;18.00;69.10;;;;;;5025396;28;20089;-76
2023/07/17 08:45:23;;;;;;;7.47;2.33;;;17.90;69.90;;;;;;5033894;28;20503;-76
2023/07/17 08:47:53;;;;;;;9.77;2.15;;;17.80;70.30;;;;;;5035898;28;20870;-75
2023/07/17 08:50:22;;;;;;;7.38;2.30;;;17.80;71.50;;;;;;5029878;28;20049;-76
2023/07/17 08:52:50;;;;;;;9.00;2.60;;;17.70;71.90;;;;;;5035117;28;20042;-76
2023/07/17 08:55:17;;;;;;;5.05;1.67;;;17.60;72.70;;;;;;5037520;28;20064;-75
2023/07/17 08:57:46;;;;;;;5.97;2.27;;;17.50;73.30;;;;;;5026446;28;20621;-75
2023/07/17 09:00:15;;;;;;;7.55;2.72;;;17.40;74.10;;;;;;5029034;28;20495;-75
2023/07/17 09:02:42;;;;;;;7.28;2.80;;;17.40;75.10;;;;;;5027580;28;20045;-77
2023/07/17 09:05:09;;;;;;;9.23;2.90;;;17.30;75.20;;;;;;5029543;28;20050;-76
2023/07/17 09:07:38;;;;;;;9.50;3.35;;;17.40;75.30;;;;;;5013106;28;20061;-77
2023/07/17 09:10:15;;;;;;;9.03;2.73;;;17.40;74.80;;;;;;5018735;28;20213;-77
2023/07/17 09:12:43;;;;;;;7.70;2.45;;;17.50;74.20;;;;;;5018417;28;20140;-77
2023/07/17 09:15:15;;;;;;;9.75;3.05;;;17.50;73.10;;;;;;5030080;28;20140;-77
2023/07/17 09:17:42;;;;;;;5.28;1.85;;;17.60;73.00;;;;;;5030699;28;20054;-77
2023/07/17 09:20:10;;;;;;;7.00;2.60;;;17.80;71.50;;;;;;5034833;28;20152;-76
2023/07/17 09:22:38;;;;;;;9.10;2.27;;;17.80;71.10;;;;;;5018993;28;20061;-72
2023/07/17 09:25:06;;;;;;;8.13;2.67;;;18.00;70.40;;;;;;5001962;28;20049;-71
2023/07/17 09:27:43;;;;;;;11.38;3.10;;;18.00;70.80;;;;;;5016673;28;20045;-72
2023/07/17 09:30:12;;;;;;;8.77;2.25;;;18.10;70.70;;;;;;5030940;28;20227;-72
2023/07/17 09:32:39;;;;;;;8.15;2.75;;;18.20;70.60;;;;;;5028905;28;20663;-72
2023/07/17 09:35:08;;;;;;;8.40;2.17;;;18.20;70.00;;;;;;5034641;28;20049;-72
2023/07/17 09:37:38;;;;;;;8.32;2.88;;;18.20;70.10;;;;;;5022951;28;20050;-72
2023/07/17 09:40:08;;;;;;;8.27;2.45;;;18.30;69.50;;;;;;5022849;28;20473;-72
2023/07/17 09:42:35;;;;;;;8.38;2.30;;;18.30;67.80;;;;;;5027310;28;20121;-72
2023/07/17 09:45:03;;;;;;;8.18;2.10;;;18.40;66.40;;;;;;5020778;28;20168;-73
2023/07/17 09:47:30;;;;;;;7.93;2.47;;;18.40;66.50;;;;;;5026930;28;20045;-72
2023/07/17 09:49:59;;;;;;;7.82;2.42;;;18.40;67.10;;;;;;5025551;28;20053;-72
2023/07/17 09:52:28;;;;;;;6.47;2.63;;;18.50;67.20;;;;;;5023629;28;20099;-73
2023/07/17 09:55:00;;;;;;;8.05;1.80;;;18.50;66.50;;;;;;5027715;28;20487;-73
2023/07/17 09:57:28;;;;;;;8.43;2.05;;;18.50;66.10;;;;;;5026885;28;20063;-73
2023/07/17 10:00:03;;;;;;;8.00;2.83;;;18.60;66.20;;;;;;5026948;28;20054;-72
2023/07/17 10:02:36;;;;;;;7.25;2.25;;;18.70;64.40;;;;;;5025207;28;20049;-73
2023/07/17 10:05:06;;;;;;;5.45;2.13;;;18.70;64.70;;;;;;5027257;28;20053;-73
2023/07/17 10:07:37;;;;;;;5.93;2.15;;;18.80;64.10;;;;;;5025781;28;20567;-72
2023/07/17 10:10:07;;;;;;;7.53;1.98;;;18.80;63.00;;;;;;5020638;28;20140;-73
2023/07/17 10:12:34;;;;;;;6.10;1.57;;;18.90;61.90;;;;;;5019849;28;20054;-73
2023/07/17 10:15:02;;;;;;;7.97;1.77;;;19.00;61.40;;;;;;5029050;28;20050;-73
2023/07/17 10:17:32;;;;;;;5.50;1.58;;;19.00;59.60;;;;;;5028590;28;20491;-73
2023/07/17 10:20:00;;;;;;;7.57;1.90;;;19.10;59.70;;;;;;5023683;28;20078;-72
2023/07/17 10:22:34;;;;;;;6.53;2.10;;;19.20;60.00;;;;;;5016393;28;20132;-72
2023/07/17 10:25:11;;;;;;;6.60;1.30;;;19.20;60.50;;;;;;5008691;28;20064;-72
2023/07/17 10:27:40;;;;;;;4.75;1.33;;;19.20;60.90;;;;;;5007702;28;20058;-73
2023/07/17 10:30:22;;;;;;;4.07;1.17;;;19.20;58.00;;;;;;5024284;28;20050;-73
2023/07/17 10:33:03;;;;;;;7.00;2.08;;;19.20;57.80;;;;;;5024473;28;20237;-73
2023/07/17 10:35:32;;;;;;;5.85;2.38;;;19.20;58.50;;;;;;5026925;28;20217;-73
2023/07/17 10:38:09;;;;;;;6.83;1.97;;;19.20;58.60;;;;;;5028248;28;20481;-73
2023/07/17 10:40:37;;;;;;;5.18;1.58;;;19.20;59.80;;;;;;5026344;28;20050;-73
2023/07/17 10:43:16;;;;;;;6.15;1.75;;;19.30;59.00;;;;;;5026220;28;20045;-73
2023/07/17 10:45:43;;;;;;;5.72;1.60;;;19.20;59.80;;;;;;5010494;28;20598;-72
2023/07/17 10:48:10;;;;;;;6.78;1.92;;;19.30;59.40;;;;;;5025113;28;20054;-72
2023/07/17 10:50:39;;;;;;;6.60;1.90;;;19.20;60.60;;;;;;5026807;28;20054;-73
2023/07/17 10:53:09;;;;;;;5.03;2.05;;;19.30;60.30;;;;;;5027698;28;20072;-72
2023/07/17 10:55:37;;;;;;;6.30;2.05;;;19.30;61.50;;;;;;5019483;28;20654;-72
2023/07/17 10:58:04;;;;;;;5.38;1.65;;;19.30;61.90;;;;;;5007705;28;20054;-73
2023/07/17 11:00:33;;;;;;;6.47;2.08;;;19.40;61.80;;;;;;5026649;28;20472;-73
2023/07/17 11:03:00;;;;;;;7.27;2.03;;;19.40;61.60;;;;;;5026166;28;20054;-72
2023/07/17 11:05:27;;;;;;;9.43;2.33;;;19.50;60.10;;;;;;5024976;28;20045;-72
2023/07/17 11:07:57;;;;;;;8.55;2.30;;;19.50;60.50;;;;;;5026068;28;20050;-73
2023/07/17 11:10:24;;;;;;;5.57;2.20;;;19.50;60.80;;;;;;5006345;28;20042;-72
2023/07/17 11:12:53;;;;;;;5.75;1.75;;;19.50;60.20;;;;;;5005951;28;20051;-72
2023/07/17 11:15:21;;;;;;;6.57;1.53;;;19.50;58.70;;;;;;5016034;28;20054;-72
2023/07/17 11:17:48;;;;;;;5.40;1.27;;;19.50;59.10;;;;;;5026745;28;20547;-72
2023/07/17 11:20:15;;;;;;;6.93;1.98;;;19.50;59.70;;;;;;5027148;28;20538;-72
2023/07/17 11:22:42;;;;;;;4.40;1.40;;;19.50;58.60;;;;;;5026342;28;20060;-73
2023/07/17 11:25:10;;;;;;;4.88;1.25;;;19.50;58.80;;;;;;5012093;28;20500;-73
2023/07/17 11:27:40;;;;;;;5.23;1.30;;;19.50;60.90;;;;;;5009905;28;20046;-73
2023/07/17 11:30:20;;;;;;;7.55;1.70;;;19.70;59.70;;;;;;5025782;28;20088;-73
2023/07/17 11:32:56;;;;;;;4.32;1.35;;;19.70;61.00;;;;;;5026895;28;20065;-72
2023/07/17 11:35:23;;;;;;;7.93;1.88;;;19.80;61.10;;;;;;5027517;28;20060;-73
2023/07/17 11:37:50;;;;;;;6.13;1.90;;;19.90;60.40;;;;;;5026340;28;20168;-73
2023/07/17 11:40:17;;;;;;;7.63;2.13;;;20.00;60.40;;;;;;5025636;28;20050;-73
2023/07/17 11:42:55;;;;;;;6.95;2.00;;;20.10;59.30;;;;;;5010489;28;20604;-73
2023/07/17 11:45:25;;;;;;;4.90;1.60;;;20.10;60.80;;;;;;5008070;28;20064;-73
2023/07/17 11:47:53;;;;;;;6.65;1.60;;;20.30;59.50;;;;;;5021178;28;20416;-73
2023/07/17 11:50:21;;;;;;;6.20;1.70;;;20.30;58.40;;;;;;5027119;28;20557;-74
2023/07/17 11:52:48;;;;;;;5.90;1.23;;;20.40;58.80;;;;;;5025576;28;20137;-73
2023/07/17 11:55:22;;;;;;;7.63;1.55;;;20.40;57.60;;;;;;5025627;28;20512;-73
2023/07/17 11:57:52;;;;;;;5.10;1.38;;;20.50;57.80;;;;;;5025910;28;20050;-73
2023/07/17 12:00:20;;;;;;;5.03;1.38;;;20.50;57.90;;;;;;5003901;28;20043;-73
2023/07/17 12:02:48;;;;;;;4.13;1.05;;;20.50;56.30;;;;;;5020737;28;20053;-72
2023/07/17 12:05:15;;;;;;;6.17;1.23;;;20.50;55.20;;;;;;5027344;28;20078;-73
2023/07/17 12:07:42;;;;;;;5.90;1.20;;;20.50;55.40;;;;;;5009494;28;20410;-73
2023/07/17 12:10:10;;;;;;;5.95;1.58;;;20.50;56.90;;;;;;5012524;28;20042;-72
2023/07/17 12:12:37;;;;;;;6.55;1.58;;;20.40;56.90;;;;;;5018311;28;20110;-72
2023/07/17 12:15:05;;;;;;;4.00;0.80;;;20.30;56.60;;;;;;5027062;28;20046;-73
2023/07/17 12:17:33;;;;;;;3.73;0.90;;;20.30;56.50;;;;;;5025927;28;20511;-72
2023/07/17 12:20:01;;;;;;;3.47;0.98;;;20.20;57.40;;;;;;5026546;28;20234;-73
2023/07/17 12:22:29;;;;;;;3.95;1.17;;;20.10;57.80;;;;;;5024626;28;20056;-73
2023/07/17 12:24:56;;;;;;;5.70;1.05;;;20.10;58.00;;;;;;5010593;28;20096;-73
2023/07/17 12:27:23;;;;;;;6.35;1.70;;;20.10;57.50;;;;;;5027148;28;20054;-73
2023/07/17 12:29:50;;;;;;;4.03;1.10;;;20.10;57.20;;;;;;5028582;28;20124;-73
2023/07/17 12:32:17;;;;;;;6.50;1.35;;;20.00;58.70;;;;;;5027604;28;20046;-73
2023/07/17 12:34:44;;;;;;;5.47;1.45;;;20.00;60.40;;;;;;5008720;28;20169;-73
2023/07/17 12:37:12;;;;;;;4.88;1.20;;;19.90;61.00;;;;;;5020597;28;20544;-73
2023/07/17 12:39:39;;;;;;;5.53;1.45;;;19.70;60.30;;;;;;5028546;28;20050;-72
2023/07/17 12:42:06;;;;;;;6.43;1.20;;;19.60;60.00;;;;;;5029671;28;20442;-72
2023/07/17 12:44:34;;;;;;;5.65;1.75;;;19.50;60.00;;;;;;5012195;28;20133;-73
2023/07/17 12:47:01;;;;;;;4.93;1.48;;;19.50;60.70;;;;;;5028583;28;20058;-73
2023/07/17 12:49:28;;;;;;;5.45;1.58;;;19.40;61.00;;;;;;5028077;28;20070;-73